sensor_id;sensor_type;location;lat;lon;timestamp;temperature;humidity
15705;DHT22;7952;48.396;12.806;2023-04-24T00:00:28;14.60;52.40
15705;DHT22;7952;48.396;12.806;2023-04-24T00:02:54;14.60;52.40
15705;DHT22;7952;48.396;12.806;2023-04-24T00:05:23;14.60;52.40
15705;DHT22;7952;48.396;12.806;2023-04-24T00:07:48;14.60;52.40
15705;DHT22;7952;48.396;12.806;2023-04-24T00:10:14;14.60;52.40
15705;DHT22;7952;48.396;12.806;2023-04-24T00:12:40;14.60;52.40
15705;DHT22;7952;48.396;12.806;2023-04-24T00:15:06;14.60;52.40
15705;DHT22;7952;48.396;12.806;2023-04-24T00:17:32;14.60;52.40
15705;DHT22;7952;48.396;12.806;2023-04-24T00:19:57;14.70;52.50
15705;DHT22;7952;48.396;12.806;2023-04-24T00:22:30;14.60;52.40
15705;DHT22;7952;48.396;12.806;2023-04-24T00:24:56;14.70;52.50
15705;DHT22;7952;48.396;12.806;2023-04-24T00:27:22;14.70;52.50
15705;DHT22;7952;48.396;12.806;2023-04-24T00:29:48;14.70;52.50
15705;DHT22;7952;48.396;12.806;2023-04-24T00:32:14;14.70;52.50
15705;DHT22;7952;48.396;12.806;2023-04-24T00:34:41;14.70;52.50
15705;DHT22;7952;48.396;12.806;2023-04-24T00:37:07;14.70;52.50
15705;DHT22;7952;48.396;12.806;2023-04-24T00:39:32;14.70;52.50
15705;DHT22;7952;48.396;12.806;2023-04-24T00:41:58;14.60;52.50
15705;DHT22;7952;48.396;12.806;2023-04-24T00:44:27;14.60;52.50
15705;DHT22;7952;48.396;12.806;2023-04-24T00:46:54;14.60;52.50
15705;DHT22;7952;48.396;12.806;2023-04-24T00:49:23;14.60;52.50
15705;DHT22;7952;48.396;12.806;2023-04-24T00:51:49;14.60;52.60
15705;DHT22;7952;48.396;12.806;2023-04-24T00:54:17;14.60;52.60
15705;DHT22;7952;48.396;12.806;2023-04-24T00:56:44;14.70;52.60
15705;DHT22;7952;48.396;12.806;2023-04-24T00:59:10;14.70;52.60
15705;DHT22;7952;48.396;12.806;2023-04-24T01:01:36;14.70;52.60
15705;DHT22;7952;48.396;12.806;2023-04-24T01:04:03;14.70;52.60
15705;DHT22;7952;48.396;12.806;2023-04-24T01:06:29;14.70;52.60
15705;DHT22;7952;48.396;12.806;2023-04-24T01:08:57;14.70;52.60
15705;DHT22;7952;48.396;12.806;2023-04-24T01:11:24;14.70;52.60
15705;DHT22;7952;48.396;12.806;2023-04-24T01:13:50;14.70;52.60
15705;DHT22;7952;48.396;12.806;2023-04-24T01:16:16;14.70;52.60
15705;DHT22;7952;48.396;12.806;2023-04-24T01:18:43;14.70;52.60
15705;DHT22;7952;48.396;12.806;2023-04-24T01:21:10;14.70;52.70
15705;DHT22;7952;48.396;12.806;2023-04-24T01:23:38;14.70;52.70
15705;DHT22;7952;48.396;12.806;2023-04-24T01:26:04;14.70;52.70
15705;DHT22;7952;48.396;12.806;2023-04-24T01:28:30;14.70;52.70
15705;DHT22;7952;48.396;12.806;2023-04-24T01:30:56;14.70;52.70
15705;DHT22;7952;48.396;12.806;2023-04-24T01:33:21;14.70;52.70
15705;DHT22;7952;48.396;12.806;2023-04-24T01:35:48;14.70;52.70
15705;DHT22;7952;48.396;12.806;2023-04-24T01:38:14;14.70;52.70
15705;DHT22;7952;48.396;12.806;2023-04-24T01:40:40;14.70;52.80
15705;DHT22;7952;48.396;12.806;2023-04-24T01:43:06;14.70;52.80
15705;DHT22;7952;48.396;12.806;2023-04-24T01:45:32;14.70;52.80
15705;DHT22;7952;48.396;12.806;2023-04-24T01:47:58;14.70;52.80
15705;DHT22;7952;48.396;12.806;2023-04-24T01:50:24;14.70;52.80
15705;DHT22;7952;48.396;12.806;2023-04-24T01:52:50;14.70;52.80
15705;DHT22;7952;48.396;12.806;2023-04-24T01:55:15;14.70;52.80
15705;DHT22;7952;48.396;12.806;2023-04-24T01:57:41;14.60;52.80
15705;DHT22;7952;48.396;12.806;2023-04-24T02:00:08;14.60;52.80
15705;DHT22;7952;48.396;12.806;2023-04-24T02:02:34;14.60;52.80
15705;DHT22;7952;48.396;12.806;2023-04-24T02:05:00;14.60;52.90
15705;DHT22;7952;48.396;12.806;2023-04-24T02:07:26;14.60;52.90
15705;DHT22;7952;48.396;12.806;2023-04-24T02:09:51;14.60;53.00
15705;DHT22;7952;48.396;12.806;2023-04-24T02:12:17;14.60;53.00
15705;DHT22;7952;48.396;12.806;2023-04-24T02:14:43;14.60;53.00
15705;DHT22;7952;48.396;12.806;2023-04-24T02:17:09;14.60;53.00
15705;DHT22;7952;48.396;12.806;2023-04-24T02:19:35;14.60;53.00
15705;DHT22;7952;48.396;12.806;2023-04-24T02:22:01;14.50;53.00
15705;DHT22;7952;48.396;12.806;2023-04-24T02:24:26;14.50;53.00
15705;DHT22;7952;48.396;12.806;2023-04-24T02:26:52;14.50;53.10
15705;DHT22;7952;48.396;12.806;2023-04-24T02:29:18;14.50;53.10
15705;DHT22;7952;48.396;12.806;2023-04-24T02:31:43;14.50;53.20
15705;DHT22;7952;48.396;12.806;2023-04-24T02:34:09;14.50;53.20
15705;DHT22;7952;48.396;12.806;2023-04-24T02:36:35;14.40;53.20
15705;DHT22;7952;48.396;12.806;2023-04-24T02:39:01;14.40;53.20
15705;DHT22;7952;48.396;12.806;2023-04-24T02:41:27;14.40;53.20
15705;DHT22;7952;48.396;12.806;2023-04-24T02:43:58;14.40;53.20
15705;DHT22;7952;48.396;12.806;2023-04-24T02:46:24;14.40;53.20
15705;DHT22;7952;48.396;12.806;2023-04-24T02:48:49;14.40;53.20
15705;DHT22;7952;48.396;12.806;2023-04-24T02:51:15;14.40;53.30
15705;DHT22;7952;48.396;12.806;2023-04-24T02:53:41;14.40;53.30
15705;DHT22;7952;48.396;12.806;2023-04-24T02:56:10;14.30;53.20
15705;DHT22;7952;48.396;12.806;2023-04-24T02:58:37;14.30;53.30
15705;DHT22;7952;48.396;12.806;2023-04-24T03:01:03;14.30;53.30
15705;DHT22;7952;48.396;12.806;2023-04-24T03:03:29;14.30;53.30
15705;DHT22;7952;48.396;12.806;2023-04-24T03:05:54;14.30;53.30
15705;DHT22;7952;48.396;12.806;2023-04-24T03:08:20;14.30;53.30
15705;DHT22;7952;48.396;12.806;2023-04-24T03:10:46;14.30;53.40
15705;DHT22;7952;48.396;12.806;2023-04-24T03:13:12;14.30;53.30
15705;DHT22;7952;48.396;12.806;2023-04-24T03:15:37;14.30;53.30
15705;DHT22;7952;48.396;12.806;2023-04-24T03:18:03;14.30;53.30
15705;DHT22;7952;48.396;12.806;2023-04-24T03:20:29;14.30;53.30
15705;DHT22;7952;48.396;12.806;2023-04-24T03:22:55;14.30;53.40
15705;DHT22;7952;48.396;12.806;2023-04-24T03:25:21;14.30;53.30
15705;DHT22;7952;48.396;12.806;2023-04-24T03:27:47;14.30;53.40
15705;DHT22;7952;48.396;12.806;2023-04-24T03:30:13;14.30;53.40
15705;DHT22;7952;48.396;12.806;2023-04-24T03:32:38;14.30;54.00
15705;DHT22;7952;48.396;12.806;2023-04-24T03:35:06;14.20;53.40
15705;DHT22;7952;48.396;12.806;2023-04-24T03:37:32;14.20;53.30
15705;DHT22;7952;48.396;12.806;2023-04-24T03:39:58;14.20;53.40
15705;DHT22;7952;48.396;12.806;2023-04-24T03:42:24;14.20;53.40
15705;DHT22;7952;48.396;12.806;2023-04-24T03:44:49;14.20;53.40
15705;DHT22;7952;48.396;12.806;2023-04-24T03:47:15;14.20;53.40
15705;DHT22;7952;48.396;12.806;2023-04-24T03:49:41;14.20;53.40
15705;DHT22;7952;48.396;12.806;2023-04-24T03:52:07;14.20;53.40
15705;DHT22;7952;48.396;12.806;2023-04-24T03:54:32;14.20;53.50
15705;DHT22;7952;48.396;12.806;2023-04-24T03:56:58;14.10;53.50
15705;DHT22;7952;48.396;12.806;2023-04-24T03:59:24;14.10;53.50
15705;DHT22;7952;48.396;12.806;2023-04-24T04:01:49;14.10;53.50
15705;DHT22;7952;48.396;12.806;2023-04-24T04:04:15;14.10;54.10
15705;DHT22;7952;48.396;12.806;2023-04-24T04:06:40;14.10;53.50
15705;DHT22;7952;48.396;12.806;2023-04-24T04:09:06;14.10;53.50
15705;DHT22;7952;48.396;12.806;2023-04-24T04:11:32;14.00;53.50
15705;DHT22;7952;48.396;12.806;2023-04-24T04:13:58;14.00;53.50
15705;DHT22;7952;48.396;12.806;2023-04-24T04:16:24;14.00;53.50
15705;DHT22;7952;48.396;12.806;2023-04-24T04:18:49;14.00;53.50
15705;DHT22;7952;48.396;12.806;2023-04-24T04:21:15;14.00;53.50
15705;DHT22;7952;48.396;12.806;2023-04-24T04:23:41;14.00;53.60
15705;DHT22;7952;48.396;12.806;2023-04-24T04:26:07;14.00;53.50
15705;DHT22;7952;48.396;12.806;2023-04-24T04:28:33;14.00;53.60
15705;DHT22;7952;48.396;12.806;2023-04-24T04:31:00;14.00;53.60
15705;DHT22;7952;48.396;12.806;2023-04-24T04:33:26;14.00;53.70
15705;DHT22;7952;48.396;12.806;2023-04-24T04:35:52;14.00;53.60
15705;DHT22;7952;48.396;12.806;2023-04-24T04:38:21;14.00;53.60
15705;DHT22;7952;48.396;12.806;2023-04-24T04:40:46;14.00;53.60
15705;DHT22;7952;48.396;12.806;2023-04-24T04:43:12;14.00;53.70
15705;DHT22;7952;48.396;12.806;2023-04-24T04:45:40;14.00;53.60
15705;DHT22;7952;48.396;12.806;2023-04-24T04:48:08;14.00;53.70
15705;DHT22;7952;48.396;12.806;2023-04-24T04:50:35;14.00;53.70
15705;DHT22;7952;48.396;12.806;2023-04-24T04:53:00;14.00;53.70
15705;DHT22;7952;48.396;12.806;2023-04-24T04:55:26;14.00;53.70
15705;DHT22;7952;48.396;12.806;2023-04-24T04:57:52;14.00;53.60
15705;DHT22;7952;48.396;12.806;2023-04-24T05:00:18;14.00;53.70
15705;DHT22;7952;48.396;12.806;2023-04-24T05:02:44;13.90;54.20
15705;DHT22;7952;48.396;12.806;2023-04-24T05:05:10;14.00;53.70
15705;DHT22;7952;48.396;12.806;2023-04-24T05:07:36;14.00;53.70
15705;DHT22;7952;48.396;12.806;2023-04-24T05:10:02;14.00;53.70
15705;DHT22;7952;48.396;12.806;2023-04-24T05:12:27;14.00;53.70
15705;DHT22;7952;48.396;12.806;2023-04-24T05:14:53;14.00;53.60
15705;DHT22;7952;48.396;12.806;2023-04-24T05:17:19;14.10;53.70
15705;DHT22;7952;48.396;12.806;2023-04-24T05:19:44;14.10;53.70
15705;DHT22;7952;48.396;12.806;2023-04-24T05:22:10;14.10;53.70
15705;DHT22;7952;48.396;12.806;2023-04-24T05:24:37;14.10;53.70
15705;DHT22;7952;48.396;12.806;2023-04-24T05:27:04;14.00;53.60
15705;DHT22;7952;48.396;12.806;2023-04-24T05:29:30;14.00;53.60
15705;DHT22;7952;48.396;12.806;2023-04-24T05:32:00;14.00;53.60
15705;DHT22;7952;48.396;12.806;2023-04-24T05:34:26;14.00;53.70
15705;DHT22;7952;48.396;12.806;2023-04-24T05:36:52;14.00;53.70
15705;DHT22;7952;48.396;12.806;2023-04-24T05:39:18;14.00;53.70
15705;DHT22;7952;48.396;12.806;2023-04-24T05:41:45;14.00;53.70
15705;DHT22;7952;48.396;12.806;2023-04-24T05:44:10;13.90;53.70
15705;DHT22;7952;48.396;12.806;2023-04-24T05:46:36;13.90;53.70
15705;DHT22;7952;48.396;12.806;2023-04-24T05:49:02;13.90;53.80
15705;DHT22;7952;48.396;12.806;2023-04-24T05:51:28;13.90;53.80
15705;DHT22;7952;48.396;12.806;2023-04-24T05:53:54;13.90;53.80
15705;DHT22;7952;48.396;12.806;2023-04-24T05:56:20;13.90;53.80
15705;DHT22;7952;48.396;12.806;2023-04-24T05:58:46;13.90;53.90
15705;DHT22;7952;48.396;12.806;2023-04-24T06:01:13;13.90;53.90
15705;DHT22;7952;48.396;12.806;2023-04-24T06:03:40;13.90;53.90
15705;DHT22;7952;48.396;12.806;2023-04-24T06:06:06;13.90;53.90
15705;DHT22;7952;48.396;12.806;2023-04-24T06:08:32;13.90;53.90
15705;DHT22;7952;48.396;12.806;2023-04-24T06:10:58;14.00;54.00
15705;DHT22;7952;48.396;12.806;2023-04-24T06:13:24;14.00;53.90
15705;DHT22;7952;48.396;12.806;2023-04-24T06:15:51;14.00;53.90
15705;DHT22;7952;48.396;12.806;2023-04-24T06:18:16;14.10;53.90
15705;DHT22;7952;48.396;12.806;2023-04-24T06:20:42;14.10;53.90
15705;DHT22;7952;48.396;12.806;2023-04-24T06:23:08;14.20;53.90
15705;DHT22;7952;48.396;12.806;2023-04-24T06:25:34;14.20;53.80
15705;DHT22;7952;48.396;12.806;2023-04-24T06:28:00;14.20;53.70
15705;DHT22;7952;48.396;12.806;2023-04-24T06:30:25;14.30;53.80
15705;DHT22;7952;48.396;12.806;2023-04-24T06:32:53;14.30;53.80
15705;DHT22;7952;48.396;12.806;2023-04-24T06:35:18;14.30;53.70
15705;DHT22;7952;48.396;12.806;2023-04-24T06:37:44;14.30;53.70
15705;DHT22;7952;48.396;12.806;2023-04-24T06:40:10;14.30;53.80
15705;DHT22;7952;48.396;12.806;2023-04-24T06:42:36;14.40;53.80
15705;DHT22;7952;48.396;12.806;2023-04-24T06:45:02;14.40;53.80
15705;DHT22;7952;48.396;12.806;2023-04-24T06:47:27;14.40;53.80
15705;DHT22;7952;48.396;12.806;2023-04-24T06:49:53;14.50;53.80
15705;DHT22;7952;48.396;12.806;2023-04-24T06:52:20;14.50;53.80
15705;DHT22;7952;48.396;12.806;2023-04-24T06:54:46;14.50;53.80
15705;DHT22;7952;48.396;12.806;2023-04-24T06:57:11;14.50;53.70
15705;DHT22;7952;48.396;12.806;2023-04-24T06:59:37;14.60;53.80
15705;DHT22;7952;48.396;12.806;2023-04-24T07:02:03;14.60;53.80
15705;DHT22;7952;48.396;12.806;2023-04-24T07:04:29;14.60;53.80
15705;DHT22;7952;48.396;12.806;2023-04-24T07:06:55;14.60;53.70
15705;DHT22;7952;48.396;12.806;2023-04-24T07:09:24;14.60;53.80
15705;DHT22;7952;48.396;12.806;2023-04-24T07:11:53;14.60;53.80
15705;DHT22;7952;48.396;12.806;2023-04-24T07:14:19;14.60;53.80
15705;DHT22;7952;48.396;12.806;2023-04-24T07:16:46;14.60;53.80
15705;DHT22;7952;48.396;12.806;2023-04-24T07:19:12;14.60;53.80
15705;DHT22;7952;48.396;12.806;2023-04-24T07:21:38;14.60;53.80
15705;DHT22;7952;48.396;12.806;2023-04-24T07:24:04;14.60;53.80
15705;DHT22;7952;48.396;12.806;2023-04-24T07:26:30;14.60;53.80
15705;DHT22;7952;48.396;12.806;2023-04-24T07:28:56;14.70;53.90
15705;DHT22;7952;48.396;12.806;2023-04-24T07:31:25;14.60;53.80
15705;DHT22;7952;48.396;12.806;2023-04-24T07:33:51;14.70;54.00
15705;DHT22;7952;48.396;12.806;2023-04-24T07:36:17;14.60;54.20
15705;DHT22;7952;48.396;12.806;2023-04-24T07:38:45;14.60;54.50
15705;DHT22;7952;48.396;12.806;2023-04-24T07:41:11;14.70;54.00
15705;DHT22;7952;48.396;12.806;2023-04-24T07:43:37;14.70;54.00
15705;DHT22;7952;48.396;12.806;2023-04-24T07:46:02;14.70;54.00
15705;DHT22;7952;48.396;12.806;2023-04-24T07:48:28;14.70;54.00
15705;DHT22;7952;48.396;12.806;2023-04-24T07:50:53;14.70;54.00
15705;DHT22;7952;48.396;12.806;2023-04-24T07:53:19;14.80;54.10
15705;DHT22;7952;48.396;12.806;2023-04-24T07:55:45;14.80;54.10
15705;DHT22;7952;48.396;12.806;2023-04-24T07:58:11;14.80;54.10
15705;DHT22;7952;48.396;12.806;2023-04-24T08:00:37;14.90;54.10
15705;DHT22;7952;48.396;12.806;2023-04-24T08:03:02;14.90;54.10
15705;DHT22;7952;48.396;12.806;2023-04-24T08:05:28;15.00;54.10
15705;DHT22;7952;48.396;12.806;2023-04-24T08:07:54;15.10;54.20
15705;DHT22;7952;48.396;12.806;2023-04-24T08:10:24;15.20;54.20
15705;DHT22;7952;48.396;12.806;2023-04-24T08:12:50;15.30;54.30
15705;DHT22;7952;48.396;12.806;2023-04-24T08:15:16;15.50;54.30
15705;DHT22;7952;48.396;12.806;2023-04-24T08:17:42;15.70;54.40
15705;DHT22;7952;48.396;12.806;2023-04-24T08:20:10;15.80;54.90
15705;DHT22;7952;48.396;12.806;2023-04-24T08:22:39;16.00;54.30
15705;DHT22;7952;48.396;12.806;2023-04-24T08:25:06;16.20;54.50
15705;DHT22;7952;48.396;12.806;2023-04-24T08:27:32;16.30;54.40
15705;DHT22;7952;48.396;12.806;2023-04-24T08:29:58;16.50;54.30
15705;DHT22;7952;48.396;12.806;2023-04-24T08:32:26;16.70;54.20
15705;DHT22;7952;48.396;12.806;2023-04-24T08:34:56;16.80;54.10
15705;DHT22;7952;48.396;12.806;2023-04-24T08:37:22;17.00;54.10
15705;DHT22;7952;48.396;12.806;2023-04-24T08:39:49;17.20;53.90
15705;DHT22;7952;48.396;12.806;2023-04-24T08:42:16;17.30;53.80
15705;DHT22;7952;48.396;12.806;2023-04-24T08:44:43;17.40;53.80
15705;DHT22;7952;48.396;12.806;2023-04-24T08:47:10;17.50;53.70
15705;DHT22;7952;48.396;12.806;2023-04-24T08:49:37;17.60;53.60
15705;DHT22;7952;48.396;12.806;2023-04-24T08:52:03;17.60;53.50
15705;DHT22;7952;48.396;12.806;2023-04-24T08:54:31;17.60;53.50
15705;DHT22;7952;48.396;12.806;2023-04-24T08:56:59;17.60;53.60
15705;DHT22;7952;48.396;12.806;2023-04-24T08:59:31;17.60;53.70
15705;DHT22;7952;48.396;12.806;2023-04-24T09:01:57;17.60;53.70
15705;DHT22;7952;48.396;12.806;2023-04-24T09:04:24;17.60;53.60
15705;DHT22;7952;48.396;12.806;2023-04-24T09:06:57;17.60;53.60
15705;DHT22;7952;48.396;12.806;2023-04-24T09:09:24;17.50;53.50
15705;DHT22;7952;48.396;12.806;2023-04-24T09:11:51;17.50;53.50
15705;DHT22;7952;48.396;12.806;2023-04-24T09:14:19;17.40;53.60
15705;DHT22;7952;48.396;12.806;2023-04-24T09:16:45;17.30;53.60
15705;DHT22;7952;48.396;12.806;2023-04-24T09:19:11;17.30;53.80
15705;DHT22;7952;48.396;12.806;2023-04-24T09:21:38;17.20;54.40
15705;DHT22;7952;48.396;12.806;2023-04-24T09:24:07;17.20;53.80
15705;DHT22;7952;48.396;12.806;2023-04-24T09:26:36;17.20;53.90
15705;DHT22;7952;48.396;12.806;2023-04-24T09:29:05;17.30;54.10
15705;DHT22;7952;48.396;12.806;2023-04-24T09:31:34;17.30;54.20
15705;DHT22;7952;48.396;12.806;2023-04-24T09:34:05;17.40;54.30
15705;DHT22;7952;48.396;12.806;2023-04-24T09:36:39;17.50;54.30
15705;DHT22;7952;48.396;12.806;2023-04-24T09:39:08;17.70;54.30
15705;DHT22;7952;48.396;12.806;2023-04-24T09:44:19;17.70;53.80
15705;DHT22;7952;48.396;12.806;2023-04-24T09:46:56;17.60;53.60
15705;DHT22;7952;48.396;12.806;2023-04-24T09:49:30;17.50;53.60
15705;DHT22;7952;48.396;12.806;2023-04-24T09:52:07;17.40;53.60
15705;DHT22;7952;48.396;12.806;2023-04-24T09:54:34;17.20;53.60
15705;DHT22;7952;48.396;12.806;2023-04-24T09:57:02;17.10;53.80
15705;DHT22;7952;48.396;12.806;2023-04-24T09:59:27;17.00;53.90
15705;DHT22;7952;48.396;12.806;2023-04-24T10:01:54;17.00;54.10
15705;DHT22;7952;48.396;12.806;2023-04-24T10:04:22;17.00;54.10
15705;DHT22;7952;48.396;12.806;2023-04-24T10:06:49;16.90;54.00
15705;DHT22;7952;48.396;12.806;2023-04-24T10:09:19;16.80;53.90
15705;DHT22;7952;48.396;12.806;2023-04-24T10:11:47;16.60;53.80
15705;DHT22;7952;48.396;12.806;2023-04-24T10:14:15;16.40;53.70
15705;DHT22;7952;48.396;12.806;2023-04-24T10:16:42;16.30;53.90
15705;DHT22;7952;48.396;12.806;2023-04-24T10:19:09;16.10;54.00
15705;DHT22;7952;48.396;12.806;2023-04-24T10:21:35;16.00;54.10
15705;DHT22;7952;48.396;12.806;2023-04-24T10:24:05;15.80;54.00
15705;DHT22;7952;48.396;12.806;2023-04-24T10:26:33;15.70;54.10
15705;DHT22;7952;48.396;12.806;2023-04-24T10:28:59;15.60;54.20
15705;DHT22;7952;48.396;12.806;2023-04-24T10:31:26;15.50;54.20
15705;DHT22;7952;48.396;12.806;2023-04-24T15:17:57;17.50;52.50
15705;DHT22;7952;48.396;12.806;2023-04-24T15:20:25;17.50;52.30
15705;DHT22;7952;48.396;12.806;2023-04-24T15:22:51;17.40;52.10
15705;DHT22;7952;48.396;12.806;2023-04-24T15:25:17;17.40;52.10
15705;DHT22;7952;48.396;12.806;2023-04-24T15:27:44;17.30;52.10
15705;DHT22;7952;48.396;12.806;2023-04-24T15:30:11;17.30;52.10
15705;DHT22;7952;48.396;12.806;2023-04-24T15:32:37;17.30;52.10
15705;DHT22;7952;48.396;12.806;2023-04-24T15:35:04;17.20;51.90
15705;DHT22;7952;48.396;12.806;2023-04-24T15:37:31;17.20;52.30
15705;DHT22;7952;48.396;12.806;2023-04-24T15:39:56;17.10;51.90
15705;DHT22;7952;48.396;12.806;2023-04-24T15:42:22;17.10;52.50
15705;DHT22;7952;48.396;12.806;2023-04-24T15:44:48;17.00;51.80
15705;DHT22;7952;48.396;12.806;2023-04-24T15:47:14;16.90;51.70
15705;DHT22;7952;48.396;12.806;2023-04-24T15:49:40;16.90;51.80
15705;DHT22;7952;48.396;12.806;2023-04-24T15:52:06;16.80;51.80
15705;DHT22;7952;48.396;12.806;2023-04-24T15:54:31;16.80;51.90
15705;DHT22;7952;48.396;12.806;2023-04-24T15:56:57;16.70;51.80
15705;DHT22;7952;48.396;12.806;2023-04-24T15:59:23;16.70;51.90
15705;DHT22;7952;48.396;12.806;2023-04-24T16:01:49;16.70;51.90
15705;DHT22;7952;48.396;12.806;2023-04-24T16:04:15;16.60;51.80
15705;DHT22;7952;48.396;12.806;2023-04-24T16:06:40;16.60;51.80
15705;DHT22;7952;48.396;12.806;2023-04-24T16:09:06;16.50;51.80
15705;DHT22;7952;48.396;12.806;2023-04-24T16:11:33;16.50;51.90
15705;DHT22;7952;48.396;12.806;2023-04-24T16:14:01;16.50;51.90
15705;DHT22;7952;48.396;12.806;2023-04-24T16:16:27;16.40;51.80
15705;DHT22;7952;48.396;12.806;2023-04-24T16:18:53;16.40;51.80
15705;DHT22;7952;48.396;12.806;2023-04-24T16:21:19;16.30;51.80
15705;DHT22;7952;48.396;12.806;2023-04-24T16:23:45;16.30;51.80
15705;DHT22;7952;48.396;12.806;2023-04-24T16:26:11;16.30;51.80
15705;DHT22;7952;48.396;12.806;2023-04-24T16:28:37;16.20;51.70
15705;DHT22;7952;48.396;12.806;2023-04-24T16:31:03;16.20;51.70
15705;DHT22;7952;48.396;12.806;2023-04-24T16:33:29;16.10;51.70
15705;DHT22;7952;48.396;12.806;2023-04-24T16:35:56;16.10;51.70
15705;DHT22;7952;48.396;12.806;2023-04-24T16:38:22;16.00;51.80
15705;DHT22;7952;48.396;12.806;2023-04-24T16:40:49;16.00;51.70
15705;DHT22;7952;48.396;12.806;2023-04-24T16:43:15;15.90;51.60
15705;DHT22;7952;48.396;12.806;2023-04-24T16:45:41;15.80;51.60
15705;DHT22;7952;48.396;12.806;2023-04-24T16:48:07;15.80;51.60
15705;DHT22;7952;48.396;12.806;2023-04-24T16:50:33;15.80;51.70
15705;DHT22;7952;48.396;12.806;2023-04-24T16:52:59;15.70;51.60
15705;DHT22;7952;48.396;12.806;2023-04-24T16:55:25;15.70;51.60
15705;DHT22;7952;48.396;12.806;2023-04-24T16:57:51;15.60;51.60
15705;DHT22;7952;48.396;12.806;2023-04-24T17:00:17;15.60;51.60
15705;DHT22;7952;48.396;12.806;2023-04-24T17:02:42;15.50;51.60
15705;DHT22;7952;48.396;12.806;2023-04-24T17:05:13;15.50;51.60
15705;DHT22;7952;48.396;12.806;2023-04-24T17:07:39;15.50;51.70
15705;DHT22;7952;48.396;12.806;2023-04-24T17:10:06;15.40;51.60
15705;DHT22;7952;48.396;12.806;2023-04-24T17:12:35;15.40;51.60
15705;DHT22;7952;48.396;12.806;2023-04-24T17:15:00;15.40;51.60
15705;DHT22;7952;48.396;12.806;2023-04-24T17:17:26;15.30;51.50
15705;DHT22;7952;48.396;12.806;2023-04-24T17:19:52;15.30;51.60
15705;DHT22;7952;48.396;12.806;2023-04-24T17:22:18;15.30;51.60
15705;DHT22;7952;48.396;12.806;2023-04-24T17:24:43;15.20;51.60
15705;DHT22;7952;48.396;12.806;2023-04-24T17:27:10;15.20;51.50
15705;DHT22;7952;48.396;12.806;2023-04-24T17:29:36;15.20;51.50
15705;DHT22;7952;48.396;12.806;2023-04-24T17:32:01;15.20;51.60
15705;DHT22;7952;48.396;12.806;2023-04-24T17:34:27;15.20;51.60
15705;DHT22;7952;48.396;12.806;2023-04-24T17:36:53;15.20;51.50
15705;DHT22;7952;48.396;12.806;2023-04-24T17:39:19;15.10;51.40
15705;DHT22;7952;48.396;12.806;2023-04-24T17:41:44;15.10;51.40
15705;DHT22;7952;48.396;12.806;2023-04-24T17:44:10;15.10;51.50
15705;DHT22;7952;48.396;12.806;2023-04-24T17:46:36;15.10;51.40
15705;DHT22;7952;48.396;12.806;2023-04-24T17:49:02;15.00;51.30
15705;DHT22;7952;48.396;12.806;2023-04-24T17:51:27;15.00;51.30
15705;DHT22;7952;48.396;12.806;2023-04-24T17:53:53;14.90;51.30
15705;DHT22;7952;48.396;12.806;2023-04-24T17:56:19;14.80;51.30
15705;DHT22;7952;48.396;12.806;2023-04-24T17:58:45;14.80;51.30
15705;DHT22;7952;48.396;12.806;2023-04-24T18:01:11;14.80;51.40
15705;DHT22;7952;48.396;12.806;2023-04-24T18:03:36;14.70;51.30
15705;DHT22;7952;48.396;12.806;2023-04-24T18:06:04;14.60;51.30
15705;DHT22;7952;48.396;12.806;2023-04-24T18:08:29;14.60;51.40
15705;DHT22;7952;48.396;12.806;2023-04-24T18:10:56;14.50;51.30
15705;DHT22;7952;48.396;12.806;2023-04-24T18:13:22;14.40;51.30
15705;DHT22;7952;48.396;12.806;2023-04-24T18:15:48;14.40;51.30
15705;DHT22;7952;48.396;12.806;2023-04-24T18:18:13;14.30;51.30
15705;DHT22;7952;48.396;12.806;2023-04-24T18:20:40;14.20;51.20
15705;DHT22;7952;48.396;12.806;2023-04-24T18:23:05;14.20;51.30
15705;DHT22;7952;48.396;12.806;2023-04-24T18:25:31;14.10;51.20
15705;DHT22;7952;48.396;12.806;2023-04-24T18:27:57;14.10;51.20
15705;DHT22;7952;48.396;12.806;2023-04-24T18:30:23;14.00;51.10
15705;DHT22;7952;48.396;12.806;2023-04-24T18:32:50;13.90;51.10
15705;DHT22;7952;48.396;12.806;2023-04-24T18:35:21;13.90;51.10
15705;DHT22;7952;48.396;12.806;2023-04-24T18:37:47;13.80;51.10
15705;DHT22;7952;48.396;12.806;2023-04-24T18:40:13;13.80;51.10
15705;DHT22;7952;48.396;12.806;2023-04-24T18:42:40;13.70;51.10
15705;DHT22;7952;48.396;12.806;2023-04-24T18:45:07;13.70;51.00
15705;DHT22;7952;48.396;12.806;2023-04-24T18:47:33;13.70;51.00
15705;DHT22;7952;48.396;12.806;2023-04-24T18:49:59;13.60;50.90
15705;DHT22;7952;48.396;12.806;2023-04-24T18:52:25;13.60;50.90
15705;DHT22;7952;48.396;12.806;2023-04-24T18:54:51;13.50;50.90
15705;DHT22;7952;48.396;12.806;2023-04-24T18:57:17;13.40;50.80
15705;DHT22;7952;48.396;12.806;2023-04-24T19:00:01;13.40;50.90
15705;DHT22;7952;48.396;12.806;2023-04-24T19:09:54;13.20;51.00
15705;DHT22;7952;48.396;12.806;2023-04-24T19:15:54;13.00;51.00
15705;DHT22;7952;48.396;12.806;2023-04-24T19:21:36;12.80;51.00
15705;DHT22;7952;48.396;12.806;2023-04-24T19:24:23;12.80;51.10
15705;DHT22;7952;48.396;12.806;2023-04-24T19:26:50;12.70;51.10
15705;DHT22;7952;48.396;12.806;2023-04-24T19:29:16;12.60;51.00
15705;DHT22;7952;48.396;12.806;2023-04-24T19:31:47;12.60;51.10
15705;DHT22;7952;48.396;12.806;2023-04-24T19:34:13;12.50;51.10
15705;DHT22;7952;48.396;12.806;2023-04-24T19:36:39;12.50;51.10
15705;DHT22;7952;48.396;12.806;2023-04-24T19:39:05;12.40;51.10
15705;DHT22;7952;48.396;12.806;2023-04-24T19:41:30;12.40;51.10
15705;DHT22;7952;48.396;12.806;2023-04-24T19:43:56;12.30;51.10
15705;DHT22;7952;48.396;12.806;2023-04-24T19:46:22;12.30;51.20
15705;DHT22;7952;48.396;12.806;2023-04-24T19:48:48;12.20;51.10
15705;DHT22;7952;48.396;12.806;2023-04-24T19:51:16;12.20;51.10
15705;DHT22;7952;48.396;12.806;2023-04-24T19:53:42;12.20;51.20
15705;DHT22;7952;48.396;12.806;2023-04-24T19:56:09;12.10;51.20
15705;DHT22;7952;48.396;12.806;2023-04-24T19:58:35;12.10;51.20
15705;DHT22;7952;48.396;12.806;2023-04-24T20:01:00;12.10;51.20
15705;DHT22;7952;48.396;12.806;2023-04-24T20:03:27;12.00;51.20
15705;DHT22;7952;48.396;12.806;2023-04-24T20:05:55;12.00;51.20
15705;DHT22;7952;48.396;12.806;2023-04-24T20:08:21;12.00;51.20
15705;DHT22;7952;48.396;12.806;2023-04-24T20:10:47;11.90;51.40
15705;DHT22;7952;48.396;12.806;2023-04-24T20:13:13;11.90;51.20
15705;DHT22;7952;48.396;12.806;2023-04-24T20:15:39;11.80;51.10
15705;DHT22;7952;48.396;12.806;2023-04-24T20:18:04;11.80;51.20
15705;DHT22;7952;48.396;12.806;2023-04-24T20:20:30;11.80;51.20
15705;DHT22;7952;48.396;12.806;2023-04-24T20:22:56;11.70;51.10
15705;DHT22;7952;48.396;12.806;2023-04-24T20:25:22;11.70;51.20